Terminal Aerodrome Forecast
Issued by NWS Cleveland, OH

Home | Current Version | Previous Version | Text Only | Print | Product List | Glossary On
Versions: 1 2 3 4 5 6 7 8 9 10 11 12 13 14 15 16
000
FTUS41 KCLE 191223 AAA
TAFMFD
TAF AMD
KMFD 191223Z 1912/2012 21004KT P6SM BKN035 BKN120
     FM191600 26008KT P6SM VCTS BKN035CB BKN120
     FM192100 30010KT P6SM BKN045 BKN100
     FM200000 VRB03KT P6SM FEW200
     FM200800 00000KT 4SM BR FEW200=

USA.gov is the U.S. government's official web portal to all federal, state and local government web resources and services.